createdAt,value
2024-04-19T00:02:22.141Z,7.80
2024-04-19T00:04:24.603Z,7.80
2024-04-19T00:09:44.779Z,7.70
2024-04-19T00:12:18.431Z,7.70
2024-04-19T00:17:41.750Z,7.70
2024-04-19T00:20:11.348Z,7.70
2024-04-19T00:22:38.386Z,7.70
2024-04-19T00:27:41.252Z,7.70
2024-04-19T00:28:03.371Z,7.70
2024-04-19T00:30:30.416Z,7.60
2024-04-19T00:33:14.116Z,7.60
2024-04-19T00:35:41.787Z,7.50
2024-04-19T00:38:08.581Z,7.50
2024-04-19T00:40:36.974Z,7.40
2024-04-19T00:43:04.193Z,7.40
2024-04-19T00:45:44.227Z,7.40
2024-04-19T00:48:13.685Z,7.40
2024-04-19T00:50:40.676Z,7.40
2024-04-19T00:55:47.908Z,7.40
2024-04-19T00:58:14.750Z,7.40
2024-04-19T01:00:41.778Z,7.40
2024-04-19T01:03:11.604Z,7.40
2024-04-19T01:05:38.517Z,7.30
2024-04-19T01:08:05.440Z,7.30
2024-04-19T01:10:33.547Z,7.30
2024-04-19T01:13:03.588Z,7.30
2024-04-19T01:15:51.149Z,7.30
2024-04-19T01:18:29.161Z,7.40
2024-04-19T01:20:58.168Z,7.40
2024-04-19T01:26:09.594Z,7.30
2024-04-19T01:28:37.697Z,7.30
2024-04-19T01:31:05.710Z,7.40
2024-04-19T01:33:32.685Z,7.40
2024-04-19T01:36:01.182Z,7.40
2024-04-19T01:38:29.379Z,7.40
2024-04-19T01:43:42.603Z,7.40
2024-04-19T01:46:10.437Z,7.30
2024-04-19T01:48:37.241Z,7.30
2024-04-19T01:53:47.387Z,7.30
2024-04-19T01:59:03.311Z,7.30
2024-04-19T02:01:32.795Z,7.30
2024-04-19T02:04:01.851Z,7.30
2024-04-19T02:06:29.788Z,7.40
2024-04-19T02:08:56.561Z,7.40
2024-04-19T02:11:31.361Z,7.50
2024-04-19T02:14:02.097Z,7.40
2024-04-19T02:16:28.957Z,7.40
2024-04-19T02:18:55.942Z,7.40
2024-04-19T02:21:22.793Z,7.40
2024-04-19T02:23:50.484Z,7.30
2024-04-19T02:28:57.938Z,7.30
2024-04-19T02:31:24.618Z,7.30
2024-04-19T02:33:51.449Z,7.30
2024-04-19T02:39:00.991Z,7.30
2024-04-19T02:41:30.921Z,7.30
2024-04-19T02:43:57.640Z,7.30
2024-04-19T02:46:24.425Z,7.30
2024-04-19T02:48:51.279Z,7.30
2024-04-19T02:51:18.154Z,7.30
2024-04-19T02:53:44.903Z,7.30
2024-04-19T02:56:11.654Z,7.30
2024-04-19T02:58:42.727Z,7.30
2024-04-19T03:01:09.590Z,7.40
2024-04-19T03:03:36.596Z,7.30
2024-04-19T03:06:03.411Z,7.40
2024-04-19T03:08:30.127Z,7.40
2024-04-19T03:10:56.915Z,7.40
2024-04-19T03:13:23.649Z,7.40
2024-04-19T03:15:50.411Z,7.40
2024-04-19T03:18:17.308Z,7.40
2024-04-19T03:20:44.056Z,7.40
2024-04-19T03:23:10.774Z,7.50
2024-04-19T03:25:37.561Z,7.50
2024-04-19T03:28:04.310Z,7.50
2024-04-19T03:30:31.127Z,7.50
2024-04-19T03:32:57.952Z,7.50
2024-04-19T03:35:24.708Z,7.50
2024-04-19T03:37:51.448Z,7.50
2024-04-19T03:40:18.129Z,7.50
2024-04-19T03:42:44.960Z,7.50
2024-04-19T03:45:14.044Z,7.50
2024-04-19T03:47:40.862Z,7.50
2024-04-19T03:50:07.604Z,7.60
2024-04-19T03:52:34.334Z,7.50
2024-04-19T03:55:00.987Z,7.50
2024-04-19T03:57:36.422Z,7.50
2024-04-19T04:00:03.138Z,7.50
2024-04-19T04:02:29.893Z,7.50
2024-04-19T04:04:56.615Z,7.50
2024-04-19T04:07:23.292Z,7.50
2024-04-19T04:09:49.971Z,7.50
2024-04-19T04:12:17.362Z,7.50
2024-04-19T04:14:53.571Z,7.50
2024-04-19T04:17:20.443Z,7.50
2024-04-19T04:19:47.190Z,7.50
2024-04-19T04:22:18.273Z,7.50
2024-04-19T04:24:45.173Z,7.50
2024-04-19T04:27:13.010Z,7.50
2024-04-19T04:29:39.765Z,7.60
2024-04-19T04:32:06.756Z,7.50
2024-04-19T04:34:33.620Z,7.50
2024-04-19T04:37:00.431Z,7.60
2024-04-19T04:39:27.227Z,7.60
2024-04-19T04:41:53.992Z,7.60
2024-04-19T04:44:23.298Z,7.60
2024-04-19T04:46:52.291Z,7.70
2024-04-19T04:49:20.949Z,7.70
2024-04-19T04:52:02.414Z,7.70
2024-04-19T04:54:32.024Z,7.80
2024-04-19T04:59:43.459Z,7.90
2024-04-19T05:02:10.169Z,7.90
2024-04-19T05:04:36.995Z,8.00
2024-04-19T05:07:03.686Z,8.10
2024-04-19T05:09:30.616Z,8.10
2024-04-19T05:11:57.494Z,8.20
2024-04-19T05:22:49.947Z,8.60
2024-04-19T05:28:08.726Z,8.80
2024-04-19T05:30:35.497Z,8.80
2024-04-19T05:33:02.302Z,8.90
2024-04-19T05:35:29.065Z,9.00
2024-04-19T05:37:55.708Z,9.10
2024-04-19T05:40:22.384Z,9.20
2024-04-19T05:42:49.081Z,9.30
2024-04-19T05:45:15.887Z,9.30
2024-04-19T05:47:42.724Z,9.40
2024-04-19T05:50:09.569Z,9.50
2024-04-19T05:52:36.350Z,9.50
2024-04-19T05:55:03.143Z,9.60
2024-04-19T05:57:30.115Z,9.70
2024-04-19T05:59:56.856Z,9.80
2024-04-19T06:02:23.632Z,9.90
2024-04-19T06:04:50.346Z,10.00
2024-04-19T06:07:17.165Z,10.20
2024-04-19T06:09:43.942Z,10.30
2024-04-19T06:12:10.757Z,10.40
2024-04-19T06:14:37.487Z,10.60
2024-04-19T06:17:04.159Z,10.80
2024-04-19T06:19:30.895Z,11.00
2024-04-19T06:21:58.299Z,11.30
2024-04-19T06:24:25.135Z,11.30
2024-04-19T06:26:51.857Z,11.40
2024-04-19T06:29:18.886Z,11.60
2024-04-19T06:31:45.702Z,11.70
2024-04-19T06:34:12.480Z,11.60
2024-04-19T06:36:39.207Z,11.60
2024-04-19T06:39:05.967Z,11.70
2024-04-19T06:41:32.710Z,11.70
2024-04-19T06:43:59.405Z,11.90
2024-04-19T06:46:26.209Z,11.90
2024-04-19T06:48:52.988Z,11.80
2024-04-19T06:51:20.001Z,11.80
2024-04-19T06:53:46.766Z,11.80
2024-04-19T06:56:13.545Z,11.90
2024-04-19T06:58:40.399Z,11.90
2024-04-19T07:01:16.219Z,12.00
2024-04-19T07:03:45.377Z,12.00
2024-04-19T07:06:17.639Z,12.00
2024-04-19T07:08:50.820Z,11.90
2024-04-19T07:11:17.503Z,11.80
2024-04-19T07:13:44.425Z,11.70
2024-04-19T07:16:12.170Z,11.60
2024-04-19T07:18:38.994Z,11.70
2024-04-19T07:21:05.817Z,11.60
2024-04-19T07:23:32.753Z,11.70
2024-04-19T07:25:59.560Z,11.70
2024-04-19T07:28:26.276Z,11.80
2024-04-19T07:30:53.086Z,12.00
2024-04-19T07:33:20.015Z,12.30
2024-04-19T07:35:46.770Z,12.50
2024-04-19T07:38:14.493Z,12.80
2024-04-19T07:40:41.319Z,12.80
2024-04-19T07:43:08.088Z,12.90
2024-04-19T07:45:34.829Z,12.90
2024-04-19T07:48:01.619Z,13.00
2024-04-19T07:50:28.388Z,13.20
2024-04-19T07:52:55.437Z,13.30
2024-04-19T07:55:22.176Z,13.10
2024-04-19T07:57:48.949Z,12.90
2024-04-19T08:00:15.907Z,12.90
2024-04-19T08:02:42.711Z,12.60
2024-04-19T08:05:09.453Z,12.30
2024-04-19T08:07:40.200Z,12.10
2024-04-19T08:10:07.794Z,11.80
2024-04-19T08:12:34.602Z,11.60
2024-04-19T08:15:01.374Z,11.60
2024-04-19T08:17:28.101Z,11.60
2024-04-19T08:19:55.059Z,11.70
2024-04-19T08:22:21.770Z,11.60
2024-04-19T08:24:48.559Z,11.50
2024-04-19T08:27:15.304Z,11.50
2024-04-19T08:29:41.970Z,11.70
2024-04-19T08:32:08.768Z,11.80
2024-04-19T08:34:35.458Z,11.90
2024-04-19T08:37:02.129Z,11.90
2024-04-19T08:39:28.909Z,12.00
2024-04-19T08:41:55.690Z,12.20
2024-04-19T08:44:22.559Z,12.40
2024-04-19T08:46:49.227Z,12.30
2024-04-19T08:49:16.026Z,12.10
2024-04-19T08:51:55.480Z,12.10
2024-04-19T08:54:28.135Z,12.00
2024-04-19T08:56:55.872Z,12.10
2024-04-19T08:59:22.673Z,12.20
2024-04-19T09:01:49.379Z,12.60
2024-04-19T09:04:16.084Z,12.60
2024-04-19T09:06:42.945Z,12.60
2024-04-19T09:09:09.741Z,12.60
2024-04-19T09:11:36.501Z,12.70
2024-04-19T09:14:03.314Z,12.90
2024-04-19T09:16:30.084Z,12.70
2024-04-19T09:18:56.967Z,12.50
2024-04-19T09:21:23.824Z,12.30
2024-04-19T09:23:50.669Z,12.20
2024-04-19T09:26:18.121Z,12.00
2024-04-19T09:28:44.844Z,12.00
2024-04-19T09:31:11.787Z,11.90
2024-04-19T09:33:38.606Z,11.80
2024-04-19T09:36:05.382Z,11.80
2024-04-19T09:38:32.441Z,11.80
2024-04-19T09:40:59.215Z,11.90
2024-04-19T09:43:26.092Z,12.00
2024-04-19T09:45:53.323Z,12.00
2024-04-19T09:48:20.367Z,12.00
2024-04-19T09:50:47.187Z,12.10
2024-04-19T09:53:13.922Z,12.30
2024-04-19T09:55:40.714Z,12.20
2024-04-19T09:58:08.141Z,12.30
2024-04-19T10:00:35.038Z,12.30
2024-04-19T10:03:01.881Z,12.20
2024-04-19T10:05:28.625Z,12.20
2024-04-19T10:07:55.374Z,12.20
2024-04-19T10:10:22.129Z,12.40
2024-04-19T10:12:48.956Z,12.10
2024-04-19T10:15:15.700Z,12.00
2024-04-19T10:17:42.591Z,12.10
2024-04-19T10:20:09.414Z,12.60
2024-04-19T10:22:36.139Z,12.70
2024-04-19T10:25:02.990Z,12.90
2024-04-19T10:27:29.992Z,13.00
2024-04-19T10:29:56.905Z,13.30
2024-04-19T10:32:23.632Z,13.40
2024-04-19T10:34:50.407Z,13.30
2024-04-19T10:37:18.046Z,12.90
2024-04-19T10:39:44.767Z,12.70
2024-04-19T10:42:11.518Z,12.50
2024-04-19T10:44:40.778Z,12.40
2024-04-19T10:47:07.529Z,12.20
2024-04-19T10:49:34.287Z,12.20
2024-04-19T10:52:01.285Z,12.20
2024-04-19T10:54:28.087Z,12.00
2024-04-19T10:56:54.807Z,12.10
2024-04-19T10:59:21.527Z,12.20
2024-04-19T11:01:48.411Z,12.10
2024-04-19T11:04:15.349Z,11.80
2024-04-19T11:06:49.765Z,11.60
2024-04-19T11:09:16.499Z,11.50
2024-04-19T11:11:44.248Z,11.20
2024-04-19T11:14:11.111Z,11.10
2024-04-19T11:16:38.099Z,11.10
2024-04-19T11:19:07.871Z,11.10
2024-04-19T11:21:36.080Z,10.90
2024-04-19T11:24:02.746Z,10.80
2024-04-19T11:26:29.505Z,11.00
2024-04-19T11:28:56.206Z,10.90
2024-04-19T11:31:25.386Z,10.80
2024-04-19T11:33:52.197Z,10.80
2024-04-19T11:36:19.176Z,10.80
2024-04-19T11:38:46.399Z,10.90
2024-04-19T11:41:13.122Z,11.00
2024-04-19T11:43:39.758Z,10.80
2024-04-19T11:46:07.484Z,10.50
2024-04-19T11:48:34.411Z,10.30
2024-04-19T11:51:01.158Z,10.20
2024-04-19T11:53:30.647Z,10.30
2024-04-19T11:58:41.615Z,10.30
2024-04-19T12:01:12.436Z,10.30
2024-04-19T12:03:39.578Z,10.40
2024-04-19T12:06:07.669Z,10.50
2024-04-19T12:08:34.449Z,10.50
2024-04-19T12:11:02.277Z,10.50
2024-04-19T12:14:13.316Z,10.40
2024-04-19T12:16:36.185Z,10.30
2024-04-19T12:19:03.644Z,10.10
2024-04-19T12:21:30.963Z,9.90
2024-04-19T12:23:58.224Z,9.40
2024-04-19T12:26:26.127Z,9.40
2024-04-19T12:28:55.209Z,9.20
2024-04-19T12:31:22.581Z,9.10
2024-04-19T12:33:49.339Z,9.00
2024-04-19T12:36:24.778Z,8.90
2024-04-19T12:38:51.475Z,9.00
2024-04-19T12:41:18.161Z,9.10
2024-04-19T12:43:44.930Z,9.30
2024-04-19T12:46:11.752Z,9.40
2024-04-19T12:48:40.151Z,9.50
2024-04-19T12:51:10.264Z,9.50
2024-04-19T12:53:37.149Z,9.60
2024-04-19T12:56:03.981Z,9.60
2024-04-19T12:58:31.031Z,9.60
2024-04-19T13:00:57.858Z,9.70
2024-04-19T13:03:24.814Z,9.60
2024-04-19T13:05:51.571Z,9.50
2024-04-19T13:08:18.400Z,9.40
2024-04-19T13:10:45.128Z,9.40
2024-04-19T13:13:11.827Z,9.40
2024-04-19T13:15:38.613Z,9.20
2024-04-19T13:18:05.465Z,9.20
2024-04-19T13:20:32.290Z,9.10
2024-04-19T13:22:59.056Z,9.10
2024-04-19T13:25:25.834Z,9.20
2024-04-19T13:27:52.911Z,9.20
2024-04-19T13:30:19.824Z,9.20
2024-04-19T13:32:46.632Z,9.30
2024-04-19T13:35:13.711Z,9.20
2024-04-19T13:37:40.446Z,9.30
2024-04-19T13:40:07.274Z,9.30
2024-04-19T13:42:34.224Z,9.40
2024-04-19T13:45:01.072Z,9.30
2024-04-19T13:47:28.022Z,9.20
2024-04-19T13:49:54.855Z,9.20
2024-04-19T13:52:22.666Z,9.30
2024-04-19T13:54:51.091Z,9.20
2024-04-19T13:57:18.255Z,9.30
2024-04-19T13:59:45.160Z,9.50
2024-04-19T14:02:12.029Z,9.70
2024-04-19T14:04:38.753Z,9.90
2024-04-19T14:07:05.532Z,9.90
2024-04-19T14:09:32.423Z,10.00
2024-04-19T14:11:59.359Z,10.10
2024-04-19T14:14:26.291Z,10.10
2024-04-19T14:16:52.953Z,10.10
2024-04-19T14:19:20.074Z,10.40
2024-04-19T14:21:46.825Z,10.60
2024-04-19T14:24:14.031Z,10.60
2024-04-19T14:26:40.814Z,10.90
2024-04-19T14:29:07.539Z,10.80
2024-04-19T14:31:34.325Z,10.90
2024-04-19T14:34:01.236Z,10.80
2024-04-19T14:36:30.805Z,10.70
2024-04-19T14:38:57.534Z,10.80
2024-04-19T14:41:25.272Z,10.90
2024-04-19T14:43:52.016Z,10.90
2024-04-19T14:46:18.775Z,10.90
2024-04-19T14:48:45.508Z,10.90
2024-04-19T14:51:14.622Z,10.90
2024-04-19T14:53:41.322Z,11.00
2024-04-19T14:56:08.104Z,11.30
2024-04-19T14:58:37.010Z,11.60
2024-04-19T15:01:11.083Z,11.80
2024-04-19T15:09:13.295Z,11.50
2024-04-19T15:11:49.260Z,11.60
2024-04-19T15:14:17.074Z,11.60
2024-04-19T15:16:53.294Z,11.60
2024-04-19T15:19:22.582Z,11.70
2024-04-19T15:21:56.499Z,11.70
2024-04-19T15:24:25.473Z,11.90
2024-04-19T15:26:54.639Z,12.00
2024-04-19T15:29:21.671Z,11.80
2024-04-19T15:31:48.411Z,11.70
2024-04-19T15:34:40.156Z,11.60
2024-04-19T15:37:08.231Z,11.40
2024-04-19T15:39:35.037Z,11.20
2024-04-19T15:42:01.973Z,10.90
2024-04-19T15:44:28.819Z,10.70
2024-04-19T15:46:59.134Z,10.60
2024-04-19T15:49:26.250Z,10.60
2024-04-19T15:51:59.379Z,10.60
2024-04-19T15:54:26.238Z,10.70
2024-04-19T15:57:03.600Z,10.70
2024-04-19T15:59:33.295Z,10.70
2024-04-19T16:02:00.150Z,10.70
2024-04-19T16:04:27.108Z,10.70
2024-04-19T16:07:05.637Z,10.70
2024-04-19T16:10:23.727Z,10.70
2024-04-19T16:12:31.763Z,10.70
2024-04-19T16:15:01.200Z,10.50
2024-04-19T16:17:31.604Z,10.40
2024-04-19T16:20:05.476Z,10.30
2024-04-19T16:22:37.088Z,10.30
2024-04-19T16:25:10.930Z,10.30
2024-04-19T16:27:39.827Z,10.40
2024-04-19T16:30:06.790Z,10.40
2024-04-19T16:35:13.912Z,10.60
2024-04-19T16:37:42.009Z,10.70
2024-04-19T16:40:08.875Z,10.70
2024-04-19T16:42:35.591Z,10.70
2024-04-19T16:45:10.638Z,10.60
2024-04-19T16:50:17.827Z,10.60
2024-04-19T16:52:49.180Z,10.60
2024-04-19T16:55:16.171Z,10.50
2024-04-19T16:57:42.968Z,10.50
2024-04-19T17:00:09.745Z,10.30
2024-04-19T17:02:41.312Z,10.10
2024-04-19T17:05:15.287Z,10.00
2024-04-19T17:07:45.289Z,10.00
2024-04-19T17:12:52.527Z,9.80
2024-04-19T17:15:21.181Z,9.70
2024-04-19T17:17:50.915Z,9.70
2024-04-19T17:20:20.689Z,9.60
2024-04-19T17:22:47.801Z,9.60
2024-04-19T17:25:14.683Z,9.60
2024-04-19T17:27:42.705Z,9.50
2024-04-19T17:33:02.210Z,9.40
2024-04-19T17:35:33.213Z,9.30
2024-04-19T17:38:02.070Z,9.30
2024-04-19T17:40:28.906Z,9.30
2024-04-19T17:42:55.979Z,9.40
2024-04-19T17:45:23.050Z,9.40
2024-04-19T17:50:40.190Z,9.30
2024-04-19T17:55:51.155Z,9.30
2024-04-19T17:58:18.144Z,9.30
2024-04-19T18:08:50.491Z,9.20
2024-04-19T18:11:22.969Z,9.20
2024-04-19T18:16:42.834Z,9.10
2024-04-19T18:19:13.407Z,9.20
2024-04-19T18:21:45.140Z,9.20
2024-04-19T18:24:12.264Z,9.20
2024-04-19T18:26:46.367Z,9.10
2024-04-19T18:29:13.256Z,9.00
2024-04-19T18:31:40.242Z,9.00
2024-04-19T18:34:13.327Z,8.90
2024-04-19T18:37:11.940Z,8.90
2024-04-19T18:39:52.050Z,8.90
2024-04-19T18:47:46.820Z,8.60
2024-04-19T18:53:04.246Z,8.50
2024-04-19T18:55:43.715Z,8.50
2024-04-19T18:58:13.707Z,8.50
2024-04-19T19:03:21.142Z,8.40
2024-04-19T19:05:52.357Z,8.40
2024-04-19T19:08:21.442Z,8.40
2024-04-19T19:10:57.330Z,8.40
2024-04-19T19:13:24.211Z,8.40
2024-04-19T19:15:51.236Z,8.40
2024-04-19T19:18:21.298Z,8.40
2024-04-19T19:20:48.277Z,8.40
2024-04-19T19:23:16.125Z,8.50
2024-04-19T19:25:42.929Z,8.50
2024-04-19T19:28:09.721Z,8.60
2024-04-19T19:30:37.553Z,8.60
2024-04-19T19:33:04.353Z,8.60
2024-04-19T19:35:32.411Z,8.60
2024-04-19T19:37:59.406Z,8.60
2024-04-19T19:40:26.313Z,8.60
2024-04-19T19:42:53.016Z,8.50
2024-04-19T19:45:19.875Z,8.50
2024-04-19T19:47:46.992Z,8.50
2024-04-19T19:50:13.959Z,8.50
2024-04-19T19:52:40.757Z,8.50
2024-04-19T19:55:10.291Z,8.50
2024-04-19T19:57:37.043Z,8.50
2024-04-19T20:00:03.917Z,8.50
2024-04-19T20:02:31.028Z,8.50
2024-04-19T20:04:57.761Z,8.50
2024-04-19T20:07:24.865Z,8.50
2024-04-19T20:09:54.438Z,8.50
2024-04-19T20:12:21.287Z,8.50
2024-04-19T20:14:48.033Z,8.50
2024-04-19T20:17:14.893Z,8.50
2024-04-19T20:19:49.462Z,8.40
2024-04-19T20:22:19.419Z,8.40
2024-04-19T20:24:49.354Z,8.40
2024-04-19T20:27:17.943Z,8.40
2024-04-19T20:29:48.127Z,8.30
2024-04-19T20:32:17.240Z,8.30
2024-04-19T20:34:47.513Z,8.20
2024-04-19T20:37:21.779Z,8.20
2024-04-19T20:39:49.808Z,8.20
2024-04-19T20:50:28.196Z,8.10
2024-04-19T20:55:56.481Z,8.00
2024-04-19T21:03:58.355Z,7.90
2024-04-19T21:06:58.353Z,8.00
2024-04-19T21:09:16.933Z,8.00
2024-04-19T21:11:49.386Z,7.90
2024-04-19T21:14:24.019Z,7.90
2024-04-19T21:16:51.014Z,7.80
2024-04-19T21:19:28.155Z,7.80
2024-04-19T21:24:40.655Z,7.60
2024-04-19T21:27:09.960Z,7.60
2024-04-19T21:29:36.773Z,7.60
2024-04-19T21:32:03.625Z,7.50
2024-04-19T21:34:33.933Z,7.50
2024-04-19T21:37:00.823Z,7.40
2024-04-19T21:39:34.975Z,7.30
2024-04-19T21:44:53.238Z,7.30
2024-04-19T21:47:30.879Z,7.40
2024-04-19T21:50:19.064Z,7.40
2024-04-19T21:52:45.798Z,7.40
2024-04-19T21:55:12.518Z,7.40
2024-04-19T21:58:03.116Z,7.40
2024-04-19T22:00:29.490Z,7.40
2024-04-19T22:02:56.284Z,7.40
2024-04-19T22:05:23.382Z,7.40
2024-04-19T22:07:52.273Z,7.40
2024-04-19T22:10:24.966Z,7.40
2024-04-19T22:12:54.135Z,7.40
2024-04-19T22:15:22.940Z,7.40
2024-04-19T22:17:52.119Z,7.40
2024-04-19T22:20:19.202Z,7.50
2024-04-19T22:22:45.921Z,7.50
2024-04-19T22:25:41.864Z,7.60
2024-04-19T22:28:08.706Z,7.60
2024-04-19T22:30:35.646Z,7.60
2024-04-19T22:33:02.660Z,7.60
2024-04-19T22:35:29.528Z,7.60
2024-04-19T22:37:56.222Z,7.60
2024-04-19T22:40:22.955Z,7.70
2024-04-19T22:42:49.701Z,7.70
2024-04-19T22:45:16.728Z,7.70
2024-04-19T22:47:45.409Z,7.70
2024-04-19T22:50:12.178Z,7.70
2024-04-19T22:52:38.851Z,7.70
2024-04-19T22:55:05.841Z,7.80
2024-04-19T22:57:32.609Z,7.70
2024-04-19T22:59:59.363Z,7.70
2024-04-19T23:02:26.141Z,7.80
2024-04-19T23:04:54.058Z,7.80
2024-04-19T23:07:20.829Z,7.80
2024-04-19T23:09:48.686Z,7.80
2024-04-19T23:12:17.196Z,7.80
2024-04-19T23:14:45.655Z,7.80
2024-04-19T23:17:12.434Z,7.80
2024-04-19T23:19:39.143Z,7.80
2024-04-19T23:22:05.882Z,7.70
2024-04-19T23:24:32.776Z,7.80
2024-04-19T23:26:59.484Z,7.80
2024-04-19T23:29:26.250Z,7.80
2024-04-19T23:31:53.142Z,7.80
2024-04-19T23:34:19.963Z,7.80
2024-04-19T23:36:46.832Z,7.80
2024-04-19T23:39:13.610Z,7.80
2024-04-19T23:41:40.332Z,7.80
2024-04-19T23:44:06.982Z,7.80
2024-04-19T23:46:33.675Z,7.80
2024-04-19T23:49:00.887Z,7.80
2024-04-19T23:51:30.562Z,7.80
2024-04-19T23:53:57.259Z,7.70
2024-04-19T23:56:23.979Z,7.70
2024-04-19T23:58:52.765Z,7.70
